Terminal Aerodrome Forecast
Issued by NWS Sterling, VA

Home | Current Version | Previous Version | Text Only | Print | Product List | Glossary On
Versions: 1 2 3 4 5 6 7 8 9 10 11 12 13 14
323
FTUS41 KLWX 240525
TAFMRB
TAF
KMRB 240525Z 2406/2506 33005KT P6SM SCT120
     FM240800 VRB03KT 5SM BR SCT120
     FM241200 00000KT P6SM FEW250
     FM241600 VRB03KT P6SM FEW050=

USA.gov is the U.S. government's official web portal to all federal, state and local government web resources and services.